createdAt,value
2023-03-26T00:02:31.943Z,8.19
2023-03-26T00:05:34.718Z,8.15
2023-03-26T00:08:38.716Z,8.11
2023-03-26T00:11:41.757Z,8.02
2023-03-26T00:14:45.244Z,8.13
2023-03-26T00:17:48.009Z,8.11
2023-03-26T00:20:51.827Z,8.16
2023-03-26T00:23:56.707Z,8.10
2023-03-26T00:26:59.992Z,8.24
2023-03-26T00:30:05.430Z,8.10
2023-03-26T00:33:08.448Z,8.10
2023-03-26T00:36:16.877Z,8.12
2023-03-26T00:39:20.143Z,8.13
2023-03-26T00:42:22.759Z,8.14
2023-03-26T00:45:25.732Z,8.20
2023-03-26T00:48:42.244Z,8.03
2023-03-26T00:51:47.480Z,7.97
2023-03-26T00:54:53.457Z,7.97
2023-03-26T00:57:56.835Z,8.04
2023-03-26T01:01:05.940Z,8.06
2023-03-26T01:04:31.703Z,8.11
2023-03-26T01:07:35.555Z,8.26
2023-03-26T01:10:39.035Z,8.25
2023-03-26T01:13:52.147Z,8.16
2023-03-26T01:16:57.524Z,8.15
2023-03-26T01:20:08.555Z,8.11
2023-03-26T01:23:11.423Z,8.09
2023-03-26T01:26:36.685Z,7.92
2023-03-26T01:29:45.500Z,8.00
2023-03-26T01:33:30.545Z,7.89
2023-03-26T01:36:42.955Z,7.89
2023-03-26T01:39:53.556Z,7.92
2023-03-26T01:43:01.847Z,7.83
2023-03-26T01:46:07.756Z,7.53
2023-03-26T01:49:13.864Z,7.57
2023-03-26T01:52:21.142Z,7.43
2023-03-26T01:55:25.606Z,7.31
2023-03-26T01:58:40.618Z,7.30
2023-03-26T02:02:05.398Z,7.26
2023-03-26T02:05:11.117Z,7.11
2023-03-26T02:08:42.052Z,7.24
2023-03-26T02:11:45.640Z,7.23
2023-03-26T02:14:48.562Z,7.25
2023-03-26T02:17:52.543Z,7.27
2023-03-26T02:20:56.008Z,7.31
2023-03-26T02:24:03.442Z,7.24
2023-03-26T02:27:08.944Z,7.18
2023-03-26T02:30:16.438Z,7.26
2023-03-26T02:33:21.919Z,7.26
2023-03-26T02:36:27.691Z,7.15
2023-03-26T02:39:34.319Z,7.15
2023-03-26T02:42:45.159Z,7.18
2023-03-26T02:45:47.963Z,7.13
2023-03-26T02:49:20.630Z,6.99
2023-03-26T02:52:23.341Z,7.02
2023-03-26T02:55:27.738Z,6.77
2023-03-26T02:58:33.895Z,6.77
2023-03-26T03:01:36.748Z,6.71
2023-03-26T03:04:39.873Z,6.59
2023-03-26T03:07:42.611Z,6.47
2023-03-26T03:10:56.222Z,6.40
2023-03-26T03:14:08.490Z,6.26
2023-03-26T03:17:11.592Z,6.21
2023-03-26T03:20:14.276Z,6.16
2023-03-26T03:23:17.562Z,6.12
2023-03-26T03:26:23.387Z,6.11
2023-03-26T03:29:28.721Z,6.06
2023-03-26T03:32:34.070Z,5.92
2023-03-26T03:35:41.851Z,5.86
2023-03-26T03:38:44.802Z,5.78
2023-03-26T03:41:51.376Z,5.77
2023-03-26T03:44:54.244Z,5.62
2023-03-26T03:48:26.919Z,5.67
2023-03-26T03:51:29.842Z,5.58
2023-03-26T03:54:35.074Z,5.42
2023-03-26T03:57:49.599Z,5.47
2023-03-26T04:01:01.120Z,5.39
2023-03-26T04:04:33.114Z,5.32
2023-03-26T04:07:40.784Z,5.25
2023-03-26T04:10:44.939Z,5.19
2023-03-26T04:13:47.506Z,5.43
2023-03-26T04:17:08.913Z,5.36
2023-03-26T04:20:16.556Z,5.30
2023-03-26T04:23:25.234Z,5.27
2023-03-26T04:26:34.011Z,5.15
2023-03-26T04:29:43.535Z,5.12
2023-03-26T04:32:52.099Z,5.16
2023-03-26T04:35:55.048Z,5.06
2023-03-26T04:39:02.620Z,5.11
2023-03-26T04:42:25.199Z,5.16
2023-03-26T04:45:40.320Z,5.12
2023-03-26T04:48:42.981Z,5.23
2023-03-26T04:51:47.530Z,5.08
2023-03-26T04:55:18.848Z,5.11
2023-03-26T04:58:32.951Z,5.12
2023-03-26T05:01:38.129Z,4.99
2023-03-26T05:04:44.121Z,5.14
2023-03-26T05:07:47.203Z,4.89
2023-03-26T05:10:53.633Z,5.08
2023-03-26T05:14:04.843Z,5.15
2023-03-26T05:17:11.202Z,5.18
2023-03-26T05:20:21.197Z,5.25
2023-03-26T05:23:23.887Z,5.20
2023-03-26T05:26:41.323Z,5.06
2023-03-26T05:29:44.172Z,5.24
2023-03-26T05:32:52.291Z,5.48
2023-03-26T05:36:01.790Z,5.57
2023-03-26T05:39:06.947Z,5.63
2023-03-26T05:42:48.413Z,5.67
2023-03-26T05:46:09.625Z,5.70
2023-03-26T05:49:13.663Z,5.78
2023-03-26T05:52:19.253Z,5.99
2023-03-26T05:55:58.306Z,5.98
2023-03-26T05:59:19.666Z,6.15
2023-03-26T06:02:43.329Z,6.33
2023-03-26T06:06:07.644Z,6.41
2023-03-26T06:09:19.098Z,6.48
2023-03-26T06:12:22.580Z,6.49
2023-03-26T06:15:25.756Z,6.53
2023-03-26T06:18:43.950Z,6.85
2023-03-26T06:22:07.608Z,6.96
2023-03-26T06:25:35.441Z,6.72
2023-03-26T06:29:04.701Z,7.06
2023-03-26T06:32:27.870Z,7.15
2023-03-26T06:35:39.525Z,7.32
2023-03-26T06:38:42.265Z,7.40
2023-03-26T06:41:46.095Z,7.54
2023-03-26T06:44:59.331Z,7.58
2023-03-26T06:48:11.180Z,7.70
2023-03-26T06:51:31.450Z,7.76
2023-03-26T06:54:57.014Z,7.93
2023-03-26T06:58:20.896Z,7.74
2023-03-26T07:01:42.253Z,7.84
2023-03-26T07:05:03.862Z,7.86
2023-03-26T07:08:26.477Z,7.67
2023-03-26T07:12:08.173Z,7.68
2023-03-26T07:15:29.804Z,7.81
2023-03-26T07:18:51.957Z,7.90
2023-03-26T07:21:58.561Z,7.95
2023-03-26T07:25:21.326Z,8.11
2023-03-26T07:29:04.019Z,8.57
2023-03-26T07:32:38.669Z,8.58
2023-03-26T07:36:30.456Z,8.78
2023-03-26T07:40:04.313Z,8.81
2023-03-26T07:44:03.607Z,8.91
2023-03-26T07:47:32.970Z,9.09
2023-03-26T07:51:00.381Z,9.20
2023-03-26T07:54:22.023Z,9.46
2023-03-26T07:58:22.934Z,8.94
2023-03-26T08:02:32.194Z,9.21
2023-03-26T08:05:59.431Z,9.32
2023-03-26T08:09:17.274Z,9.56
2023-03-26T08:12:47.378Z,9.14
2023-03-26T08:16:19.824Z,9.12
2023-03-26T08:19:34.837Z,9.33
2023-03-26T08:22:46.409Z,9.48
2023-03-26T08:26:20.137Z,9.67
2023-03-26T08:29:27.126Z,10.36
2023-03-26T08:32:30.707Z,9.48
2023-03-26T08:35:35.628Z,9.55
2023-03-26T08:38:38.793Z,9.45
2023-03-26T08:41:56.909Z,9.39
2023-03-26T08:45:21.037Z,9.39
2023-03-26T08:49:13.231Z,9.36
2023-03-26T08:52:16.346Z,9.27
2023-03-26T08:55:41.166Z,9.08
2023-03-26T08:59:21.850Z,8.95
2023-03-26T09:03:03.061Z,9.17
2023-03-26T09:06:18.672Z,8.98
2023-03-26T09:09:37.551Z,8.87
2023-03-26T09:12:46.336Z,9.04
2023-03-26T09:16:24.529Z,9.42
2023-03-26T09:19:39.116Z,9.35
2023-03-26T09:23:19.093Z,9.41
2023-03-26T09:26:41.987Z,9.91
2023-03-26T09:30:18.329Z,10.01
2023-03-26T09:33:28.834Z,9.68
2023-03-26T09:37:24.150Z,9.72
2023-03-26T09:40:53.293Z,9.84
2023-03-26T09:44:24.061Z,10.15
2023-03-26T09:47:36.116Z,9.84
2023-03-26T09:51:01.300Z,10.44
2023-03-26T09:54:35.357Z,10.91
2023-03-26T09:57:54.054Z,10.54
2023-03-26T10:01:21.039Z,11.56
2023-03-26T10:04:45.517Z,11.54
2023-03-26T10:08:15.086Z,11.64
2023-03-26T10:11:33.629Z,11.51
2023-03-26T10:14:54.095Z,12.39
2023-03-26T10:18:27.168Z,12.20
2023-03-26T10:21:58.102Z,12.91
2023-03-26T10:25:08.687Z,13.46
2023-03-26T10:28:28.443Z,13.94
2023-03-26T10:31:37.229Z,14.16
2023-03-26T10:35:16.353Z,13.69
2023-03-26T10:38:36.657Z,13.38
2023-03-26T10:41:58.919Z,13.62
2023-03-26T10:45:24.918Z,13.52
2023-03-26T10:48:52.410Z,13.22
2023-03-26T10:51:59.709Z,13.88
2023-03-26T10:55:12.964Z,14.06
2023-03-26T10:58:48.715Z,14.29
2023-03-26T11:02:19.277Z,13.90
2023-03-26T11:06:07.262Z,14.85
2023-03-26T11:09:22.202Z,15.28
2023-03-26T11:12:46.329Z,15.33
2023-03-26T11:16:16.907Z,15.61
2023-03-26T11:20:00.659Z,15.33
2023-03-26T11:23:31.492Z,15.65
2023-03-26T11:27:20.930Z,15.08
2023-03-26T11:30:48.506Z,15.19
2023-03-26T11:33:55.995Z,14.94
2023-03-26T11:37:04.767Z,14.77
2023-03-26T11:40:45.452Z,14.45
2023-03-26T11:44:05.964Z,14.94
2023-03-26T11:47:16.000Z,14.54
2023-03-26T11:50:26.061Z,14.92
2023-03-26T11:53:33.396Z,15.22
2023-03-26T11:57:05.829Z,14.82
2023-03-26T12:00:19.877Z,14.81
2023-03-26T12:03:25.024Z,14.78
2023-03-26T12:06:30.567Z,14.80
2023-03-26T12:09:34.389Z,15.52
2023-03-26T12:12:39.479Z,15.46
2023-03-26T12:15:52.054Z,16.01
2023-03-26T12:19:17.586Z,16.15
2023-03-26T12:22:32.910Z,16.31
2023-03-26T12:25:40.732Z,16.12
2023-03-26T12:28:50.990Z,15.91
2023-03-26T12:32:14.445Z,15.35
2023-03-26T12:35:20.029Z,15.25
2023-03-26T12:38:40.793Z,15.61
2023-03-26T12:42:36.682Z,15.58
2023-03-26T12:45:22.978Z,15.97
2023-03-26T12:48:32.249Z,15.96
2023-03-26T12:51:57.431Z,16.17
2023-03-26T12:55:12.536Z,15.82
2023-03-26T12:58:38.590Z,15.88
2023-03-26T13:02:11.591Z,16.09
2023-03-26T13:05:24.212Z,16.33
2023-03-26T13:09:03.432Z,16.71
2023-03-26T13:12:34.397Z,17.10
2023-03-26T13:15:46.498Z,16.66
2023-03-26T13:18:57.709Z,16.55
2023-03-26T13:22:56.950Z,15.96
2023-03-26T13:26:05.174Z,16.02
2023-03-26T13:29:11.113Z,16.93
2023-03-26T13:32:16.992Z,16.08
2023-03-26T13:35:28.748Z,15.77
2023-03-26T13:39:24.886Z,16.28
2023-03-26T13:42:52.023Z,15.73
2023-03-26T13:46:25.543Z,15.82
2023-03-26T13:49:53.203Z,15.71
2023-03-26T13:53:21.663Z,15.36
2023-03-26T13:56:31.780Z,15.29
2023-03-26T14:00:03.020Z,15.29
2023-03-26T14:03:48.105Z,15.35
2023-03-26T14:07:13.467Z,15.09
2023-03-26T14:10:25.063Z,15.19
2023-03-26T14:13:41.740Z,14.97
2023-03-26T14:16:51.906Z,15.12
2023-03-26T14:20:28.261Z,15.13
2023-03-26T14:23:59.149Z,15.16
2023-03-26T14:27:22.583Z,15.08
2023-03-26T14:31:06.704Z,14.55
2023-03-26T14:34:13.397Z,14.68
2023-03-26T14:37:33.897Z,14.71
2023-03-26T14:41:03.524Z,14.73
2023-03-26T14:44:48.026Z,14.60
2023-03-26T14:48:30.158Z,14.59
2023-03-26T14:51:41.818Z,14.40
2023-03-26T14:54:47.332Z,14.42
2023-03-26T14:58:09.808Z,14.35
2023-03-26T15:01:44.660Z,14.53
2023-03-26T15:05:50.901Z,14.60
2023-03-26T15:09:13.271Z,14.36
2023-03-26T15:12:46.229Z,14.17
2023-03-26T15:16:01.808Z,13.96
2023-03-26T15:19:13.643Z,14.00
2023-03-26T15:22:41.135Z,13.90
2023-03-26T15:26:38.453Z,13.86
2023-03-26T15:29:49.804Z,13.55
2023-03-26T15:33:19.068Z,13.86
2023-03-26T15:37:03.556Z,14.07
2023-03-26T15:40:11.223Z,14.01
2023-03-26T15:43:17.165Z,13.95
2023-03-26T15:47:19.039Z,13.93
2023-03-26T15:50:42.146Z,13.88
2023-03-26T15:53:55.971Z,13.86
2023-03-26T15:57:23.306Z,13.77
2023-03-26T16:00:32.434Z,13.86
2023-03-26T16:03:43.493Z,13.83
2023-03-26T16:07:11.593Z,13.66
2023-03-26T16:10:37.581Z,13.71
2023-03-26T16:13:55.345Z,13.68
2023-03-26T16:17:02.547Z,13.66
2023-03-26T16:20:28.388Z,13.64
2023-03-26T16:23:47.616Z,13.59
2023-03-26T16:27:13.386Z,13.43
2023-03-26T16:30:18.335Z,13.45
2023-03-26T16:33:23.821Z,13.42
2023-03-26T16:36:36.094Z,12.98
2023-03-26T16:39:44.303Z,12.84
2023-03-26T16:43:12.243Z,12.65
2023-03-26T16:46:29.559Z,12.47
2023-03-26T16:50:14.548Z,12.26
2023-03-26T16:53:33.389Z,11.99
2023-03-26T16:56:51.019Z,11.61
2023-03-26T17:00:24.568Z,11.21
2023-03-26T17:04:19.929Z,11.07
2023-03-26T17:07:58.804Z,10.85
2023-03-26T17:11:10.672Z,10.50
2023-03-26T17:14:42.662Z,10.11
2023-03-26T17:17:51.802Z,9.88
2023-03-26T17:21:05.420Z,9.88
2023-03-26T17:24:27.316Z,9.87
2023-03-26T17:28:16.681Z,9.91
2023-03-26T17:31:26.955Z,9.95
2023-03-26T17:34:38.788Z,10.04
2023-03-26T17:37:46.786Z,10.01
2023-03-26T17:40:57.372Z,10.18
2023-03-26T17:44:00.713Z,10.38
2023-03-26T17:47:05.225Z,10.26
2023-03-26T17:50:14.384Z,10.40
2023-03-26T17:53:26.245Z,10.41
2023-03-26T17:56:30.452Z,10.23
2023-03-26T17:59:33.672Z,10.19
2023-03-26T18:02:42.950Z,10.33
2023-03-26T18:05:47.491Z,10.42
2023-03-26T18:09:11.519Z,10.50
2023-03-26T18:12:39.021Z,10.56
2023-03-26T18:16:34.450Z,10.30
2023-03-26T18:19:56.466Z,10.26
2023-03-26T18:23:13.483Z,10.29
2023-03-26T18:26:33.829Z,10.31
2023-03-26T18:29:38.050Z,10.39
2023-03-26T18:32:53.021Z,10.35
2023-03-26T18:35:56.671Z,10.42
2023-03-26T18:38:59.906Z,10.42
2023-03-26T18:42:02.871Z,10.21
2023-03-26T18:45:21.067Z,10.35
2023-03-26T18:48:25.500Z,10.35
2023-03-26T18:51:30.113Z,10.39
2023-03-26T18:54:36.039Z,10.50
2023-03-26T18:57:40.425Z,10.30
2023-03-26T19:00:44.827Z,10.23
2023-03-26T19:03:48.524Z,9.98
2023-03-26T19:06:55.852Z,9.94
2023-03-26T19:10:04.884Z,9.96
2023-03-26T19:13:15.686Z,9.93
2023-03-26T19:16:26.000Z,9.56
2023-03-26T19:19:37.421Z,9.23
2023-03-26T19:22:42.679Z,9.08
2023-03-26T19:26:02.157Z,9.11
2023-03-26T19:29:06.416Z,9.21
2023-03-26T19:32:22.428Z,9.42
2023-03-26T19:35:27.589Z,9.60
2023-03-26T19:38:39.318Z,9.69
2023-03-26T19:41:46.753Z,9.67
2023-03-26T19:44:51.889Z,9.44
2023-03-26T19:51:18.626Z,9.47
2023-03-26T19:51:21.432Z,9.31
2023-03-26T19:54:25.620Z,9.26
2023-03-26T19:57:33.379Z,9.10
2023-03-26T20:00:37.378Z,8.91
2023-03-26T20:03:42.763Z,9.18
2023-03-26T20:06:49.665Z,9.30
2023-03-26T20:09:53.665Z,9.33
2023-03-26T20:12:56.508Z,9.42
2023-03-26T20:16:11.144Z,9.45
2023-03-26T20:19:15.216Z,9.39
2023-03-26T20:22:23.966Z,9.40
2023-03-26T20:25:31.164Z,9.37
2023-03-26T20:28:42.364Z,9.34
2023-03-26T20:31:52.312Z,9.37
2023-03-26T20:34:55.383Z,9.49
2023-03-26T20:37:58.536Z,9.45
2023-03-26T20:41:02.212Z,9.48
2023-03-26T20:44:13.977Z,9.42
2023-03-26T20:47:17.083Z,9.44
2023-03-26T20:50:23.269Z,9.50
2023-03-26T20:53:26.322Z,9.65
2023-03-26T20:56:29.309Z,9.58
2023-03-26T20:59:32.067Z,9.48
2023-03-26T21:02:35.074Z,9.45
2023-03-26T21:05:39.517Z,9.37
2023-03-26T21:08:43.903Z,9.38
2023-03-26T21:12:02.250Z,9.35
2023-03-26T21:15:13.349Z,9.30
2023-03-26T21:18:19.902Z,9.27
2023-03-26T21:21:37.813Z,9.28
2023-03-26T21:24:57.505Z,9.26
2023-03-26T21:28:26.275Z,9.26
2023-03-26T21:31:38.074Z,9.23
2023-03-26T21:34:47.891Z,9.25
2023-03-26T21:37:59.221Z,9.22
2023-03-26T21:44:06.090Z,9.42
2023-03-26T21:47:09.965Z,9.44
2023-03-26T21:50:15.546Z,9.43
2023-03-26T21:53:18.654Z,9.37
2023-03-26T21:56:31.430Z,9.36
2023-03-26T21:59:40.143Z,9.43
2023-03-26T22:03:12.360Z,9.34
2023-03-26T22:06:43.275Z,9.27
2023-03-26T22:09:46.284Z,9.20
2023-03-26T22:12:49.476Z,9.10
2023-03-26T22:15:52.299Z,8.98
2023-03-26T22:18:54.910Z,8.93
2023-03-26T22:21:58.613Z,8.92
2023-03-26T22:25:01.519Z,8.95
2023-03-26T22:28:04.939Z,9.01
2023-03-26T22:31:09.390Z,8.97
2023-03-26T22:34:12.444Z,8.98
2023-03-26T22:37:16.428Z,9.01
2023-03-26T22:40:19.504Z,8.99
2023-03-26T22:43:22.166Z,8.95
2023-03-26T22:46:25.118Z,8.96
2023-03-26T22:49:30.483Z,8.88
2023-03-26T22:52:33.946Z,8.53
2023-03-26T22:55:36.746Z,8.23
2023-03-26T22:58:39.582Z,8.13
2023-03-26T23:01:42.318Z,8.08
2023-03-26T23:04:46.635Z,8.11
2023-03-26T23:07:49.932Z,8.10
2023-03-26T23:10:52.973Z,8.12
2023-03-26T23:13:55.952Z,8.08
2023-03-26T23:16:59.861Z,8.05
2023-03-26T23:20:06.517Z,7.95
2023-03-26T23:23:10.736Z,7.77
2023-03-26T23:26:14.871Z,7.79
2023-03-26T23:29:17.711Z,7.72
2023-03-26T23:32:24.703Z,7.71
2023-03-26T23:35:27.868Z,7.58
2023-03-26T23:38:43.665Z,7.51
2023-03-26T23:41:47.735Z,7.52
2023-03-26T23:44:50.751Z,7.45
2023-03-26T23:47:53.521Z,7.48
2023-03-26T23:51:03.151Z,7.43
2023-03-26T23:54:09.133Z,7.39
2023-03-26T23:57:12.071Z,7.26
